sensor_id;sensor_type;location;lat;lon;timestamp;pressure;altitude;pressure_sealevel;temperature;humidity
23677;BME280;31493;49.058;12.190;2023-04-22T00:02:00;95592.88;;;9.69;84.73
23677;BME280;31493;49.058;12.190;2023-04-22T00:04:27;95598.59;;;9.62;86.06
23677;BME280;31493;49.058;12.190;2023-04-22T00:06:54;95597.56;;;9.64;86.58
23677;BME280;31493;49.058;12.190;2023-04-22T00:09:21;95587.56;;;9.60;86.38
23677;BME280;31493;49.058;12.190;2023-04-22T00:11:48;95594.28;;;9.98;80.88
23677;BME280;31493;49.058;12.190;2023-04-22T00:14:17;95588.22;;;10.34;76.73
23677;BME280;31493;49.058;12.190;2023-04-22T00:16:44;95576.41;;;10.87;70.28
23677;BME280;31493;49.058;12.190;2023-04-22T00:19:11;95589.44;;;11.19;66.59
23677;BME280;31493;49.058;12.190;2023-04-22T00:21:38;95588.00;;;11.26;65.52
23677;BME280;31493;49.058;12.190;2023-04-22T00:24:06;95585.91;;;11.32;64.43
23677;BME280;31493;49.058;12.190;2023-04-22T00:26:33;95588.47;;;11.32;64.20
23677;BME280;31493;49.058;12.190;2023-04-22T00:29:00;95573.38;;;11.48;62.74
23677;BME280;31493;49.058;12.190;2023-04-22T00:31:28;95573.66;;;11.66;61.60
23677;BME280;31493;49.058;12.190;2023-04-22T00:33:55;95576.25;;;11.66;61.30
23677;BME280;31493;49.058;12.190;2023-04-22T00:36:22;95569.28;;;11.34;64.56
23677;BME280;31493;49.058;12.190;2023-04-22T00:38:49;95587.56;;;10.76;68.93
23677;BME280;31493;49.058;12.190;2023-04-22T00:41:17;95593.50;;;10.32;73.37
23677;BME280;31493;49.058;12.190;2023-04-22T00:43:44;95590.63;;;10.70;69.53
23677;BME280;31493;49.058;12.190;2023-04-22T00:46:11;95588.63;;;10.96;66.76
23677;BME280;31493;49.058;12.190;2023-04-22T00:48:40;95592.97;;;11.18;65.01
23677;BME280;31493;49.058;12.190;2023-04-22T00:51:07;95596.88;;;11.24;64.00
23677;BME280;31493;49.058;12.190;2023-04-22T00:53:34;95589.19;;;11.34;63.67
23677;BME280;31493;49.058;12.190;2023-04-22T00:56:01;95596.16;;;10.99;66.96
23677;BME280;31493;49.058;12.190;2023-04-22T00:58:29;95593.19;;;10.13;75.26
23677;BME280;31493;49.058;12.190;2023-04-22T01:00:57;95596.50;;;9.67;79.25
23677;BME280;31493;49.058;12.190;2023-04-22T01:03:25;95600.78;;;9.55;81.18
23677;BME280;31493;49.058;12.190;2023-04-22T01:05:54;95599.25;;;9.53;81.90
23677;BME280;31493;49.058;12.190;2023-04-22T01:08:23;95600.41;;;9.12;86.72
23677;BME280;31493;49.058;12.190;2023-04-22T01:10:54;95606.53;;;8.98;88.19
23677;BME280;31493;49.058;12.190;2023-04-22T01:13:21;95612.00;;;8.81;90.62
23677;BME280;31493;49.058;12.190;2023-04-22T01:15:49;95600.97;;;8.79;90.81
23677;BME280;31493;49.058;12.190;2023-04-22T01:18:16;95601.16;;;8.88;90.32
23677;BME280;31493;49.058;12.190;2023-04-22T01:20:44;95598.69;;;8.87;90.62
23677;BME280;31493;49.058;12.190;2023-04-22T01:23:16;95599.41;;;8.89;91.56
23677;BME280;31493;49.058;12.190;2023-04-22T01:25:45;95603.66;;;8.90;91.48
23677;BME280;31493;49.058;12.190;2023-04-22T01:28:12;95614.06;;;8.88;91.46
23677;BME280;31493;49.058;12.190;2023-04-22T01:30:39;95607.25;;;8.87;91.52
23677;BME280;31493;49.058;12.190;2023-04-22T01:33:07;95610.88;;;8.98;90.99
23677;BME280;31493;49.058;12.190;2023-04-22T01:35:35;95616.97;;;8.84;91.85
23677;BME280;31493;49.058;12.190;2023-04-22T01:38:02;95611.06;;;8.95;91.84
23677;BME280;31493;49.058;12.190;2023-04-22T01:40:32;95611.88;;;8.95;91.37
23677;BME280;31493;49.058;12.190;2023-04-22T01:43:00;95609.41;;;8.94;91.55
23677;BME280;31493;49.058;12.190;2023-04-22T01:45:27;95599.28;;;9.03;91.29
23677;BME280;31493;49.058;12.190;2023-04-22T01:47:54;95604.78;;;8.86;92.07
23677;BME280;31493;49.058;12.190;2023-04-22T01:50:22;95609.00;;;8.87;92.56
23677;BME280;31493;49.058;12.190;2023-04-22T01:52:49;95619.56;;;8.84;92.22
23677;BME280;31493;49.058;12.190;2023-04-22T01:55:16;95614.88;;;8.89;92.45
23677;BME280;31493;49.058;12.190;2023-04-22T01:57:45;95606.53;;;8.98;92.41
23677;BME280;31493;49.058;12.190;2023-04-22T02:00:12;95614.06;;;8.88;92.99
23677;BME280;31493;49.058;12.190;2023-04-22T02:02:39;95612.84;;;8.81;92.85
23677;BME280;31493;49.058;12.190;2023-04-22T02:05:07;95615.00;;;8.75;93.16
23677;BME280;31493;49.058;12.190;2023-04-22T02:07:35;95615.72;;;8.64;94.13
23677;BME280;31493;49.058;12.190;2023-04-22T02:10:02;95618.28;;;8.77;93.69
23677;BME280;31493;49.058;12.190;2023-04-22T02:12:29;95615.63;;;8.78;92.87
23677;BME280;31493;49.058;12.190;2023-04-22T02:14:58;95617.47;;;8.76;93.16
23677;BME280;31493;49.058;12.190;2023-04-22T02:17:25;95616.06;;;8.59;93.91
23677;BME280;31493;49.058;12.190;2023-04-22T02:19:53;95609.44;;;8.55;94.38
23677;BME280;31493;49.058;12.190;2023-04-22T02:22:21;95602.81;;;8.51;94.71
23677;BME280;31493;49.058;12.190;2023-04-22T02:24:48;95608.41;;;8.58;93.88
23677;BME280;31493;49.058;12.190;2023-04-22T02:27:16;95604.06;;;8.58;94.14
23677;BME280;31493;49.058;12.190;2023-04-22T02:29:42;95598.41;;;8.53;94.37
23677;BME280;31493;49.058;12.190;2023-04-22T02:32:12;95605.69;;;8.47;94.48
23677;BME280;31493;49.058;12.190;2023-04-22T02:34:39;95592.31;;;8.67;92.53
23677;BME280;31493;49.058;12.190;2023-04-22T02:37:06;95594.56;;;8.84;90.71
23677;BME280;31493;49.058;12.190;2023-04-22T02:39:33;95593.09;;;8.93;89.51
23677;BME280;31493;49.058;12.190;2023-04-22T02:42:00;95600.34;;;8.88;90.00
23677;BME280;31493;49.058;12.190;2023-04-22T02:44:27;95607.66;;;8.81;89.40
23677;BME280;31493;49.058;12.190;2023-04-22T02:46:54;95600.56;;;8.85;88.90
23677;BME280;31493;49.058;12.190;2023-04-22T02:49:23;95611.38;;;8.77;90.32
23677;BME280;31493;49.058;12.190;2023-04-22T02:51:49;95603.13;;;8.47;92.02
23677;BME280;31493;49.058;12.190;2023-04-22T02:54:17;95608.69;;;8.41;93.25
23677;BME280;31493;49.058;12.190;2023-04-22T02:56:44;95605.56;;;8.23;94.62
23677;BME280;31493;49.058;12.190;2023-04-22T02:59:11;95597.03;;;8.35;93.47
23677;BME280;31493;49.058;12.190;2023-04-22T03:01:38;95596.16;;;8.34;93.31
23677;BME280;31493;49.058;12.190;2023-04-22T03:04:05;95601.31;;;8.22;94.46
23677;BME280;31493;49.058;12.190;2023-04-22T03:06:33;95594.63;;;8.19;94.49
23677;BME280;31493;49.058;12.190;2023-04-22T03:09:00;95592.22;;;8.16;94.92
23677;BME280;31493;49.058;12.190;2023-04-22T03:11:27;95592.19;;;8.43;92.22
23677;BME280;31493;49.058;12.190;2023-04-22T03:13:54;95598.72;;;8.09;95.06
23677;BME280;31493;49.058;12.190;2023-04-22T03:16:21;95597.88;;;8.61;90.45
23677;BME280;31493;49.058;12.190;2023-04-22T03:18:49;95583.25;;;9.11;85.45
23677;BME280;31493;49.058;12.190;2023-04-22T03:21:16;95584.19;;;9.10;84.51
23677;BME280;31493;49.058;12.190;2023-04-22T03:23:44;95588.59;;;9.33;82.43
23677;BME280;31493;49.058;12.190;2023-04-22T03:26:11;95585.34;;;8.93;85.75
23677;BME280;31493;49.058;12.190;2023-04-22T03:28:39;95586.94;;;8.70;87.55
23677;BME280;31493;49.058;12.190;2023-04-22T03:31:06;95594.25;;;8.51;88.64
23677;BME280;31493;49.058;12.190;2023-04-22T03:33:33;95600.06;;;8.15;93.30
23677;BME280;31493;49.058;12.190;2023-04-22T03:36:00;95591.63;;;7.73;96.47
23677;BME280;31493;49.058;12.190;2023-04-22T03:38:27;95594.66;;;7.79;97.29
23677;BME280;31493;49.058;12.190;2023-04-22T03:40:55;95599.16;;;7.76;97.18
23677;BME280;31493;49.058;12.190;2023-04-22T03:43:22;95585.97;;;7.68;98.09
23677;BME280;31493;49.058;12.190;2023-04-22T03:45:50;95597.47;;;7.62;98.27
23677;BME280;31493;49.058;12.190;2023-04-22T03:48:17;95598.53;;;7.45;99.42
23677;BME280;31493;49.058;12.190;2023-04-22T03:50:44;95596.88;;;7.44;100.00
23677;BME280;31493;49.058;12.190;2023-04-22T03:53:11;95602.31;;;7.40;100.00
23677;BME280;31493;49.058;12.190;2023-04-22T03:55:38;95600.91;;;7.48;99.66
23677;BME280;31493;49.058;12.190;2023-04-22T03:58:07;95589.25;;;7.70;98.18
23677;BME280;31493;49.058;12.190;2023-04-22T04:00:34;95589.69;;;7.76;96.98
23677;BME280;31493;49.058;12.190;2023-04-22T04:03:01;95594.31;;;8.11;94.84
23677;BME280;31493;49.058;12.190;2023-04-22T04:05:28;95596.13;;;8.09;94.19
23677;BME280;31493;49.058;12.190;2023-04-22T04:07:55;95599.19;;;7.89;95.90
23677;BME280;31493;49.058;12.190;2023-04-22T04:10:22;95595.97;;;7.85;95.85
23677;BME280;31493;49.058;12.190;2023-04-22T04:12:49;95582.38;;;7.83;96.05
23677;BME280;31493;49.058;12.190;2023-04-22T04:15:17;95595.16;;;7.85;96.27
23677;BME280;31493;49.058;12.190;2023-04-22T04:17:46;95596.19;;;7.82;95.93
23677;BME280;31493;49.058;12.190;2023-04-22T04:20:13;95598.56;;;7.85;96.45
23677;BME280;31493;49.058;12.190;2023-04-22T04:22:41;95587.97;;;7.90;95.70
23677;BME280;31493;49.058;12.190;2023-04-22T04:25:08;95596.19;;;7.82;95.87
23677;BME280;31493;49.058;12.190;2023-04-22T04:27:36;95586.00;;;7.80;96.14
23677;BME280;31493;49.058;12.190;2023-04-22T04:30:07;95590.59;;;7.75;96.05
23677;BME280;31493;49.058;12.190;2023-04-22T04:32:36;95586.50;;;7.86;95.63
23677;BME280;31493;49.058;12.190;2023-04-22T04:35:04;95591.09;;;7.68;97.39
23677;BME280;31493;49.058;12.190;2023-04-22T04:37:31;95590.28;;;7.67;97.63
23677;BME280;31493;49.058;12.190;2023-04-22T04:39:58;95592.13;;;7.65;97.54
23677;BME280;31493;49.058;12.190;2023-04-22T04:42:26;95586.34;;;7.62;98.08
23677;BME280;31493;49.058;12.190;2023-04-22T04:44:55;95603.88;;;7.69;97.19
23677;BME280;31493;49.058;12.190;2023-04-22T04:47:23;95597.41;;;7.76;96.71
23677;BME280;31493;49.058;12.190;2023-04-22T04:49:52;95600.09;;;7.75;96.91
23677;BME280;31493;49.058;12.190;2023-04-22T04:52:19;95595.13;;;7.72;96.97
23677;BME280;31493;49.058;12.190;2023-04-22T04:54:46;95591.63;;;7.73;97.05
23677;BME280;31493;49.058;12.190;2023-04-22T04:57:13;95607.06;;;7.73;97.90
23677;BME280;31493;49.058;12.190;2023-04-22T04:59:40;95600.09;;;7.75;97.48
23677;BME280;31493;49.058;12.190;2023-04-22T05:02:07;95609.38;;;7.77;97.64
23677;BME280;31493;49.058;12.190;2023-04-22T05:04:34;95603.38;;;7.77;97.78
23677;BME280;31493;49.058;12.190;2023-04-22T05:07:02;95599.19;;;7.89;97.34
23677;BME280;31493;49.058;12.190;2023-04-22T05:09:29;95597.00;;;7.82;97.07
23677;BME280;31493;49.058;12.190;2023-04-22T05:12:01;95618.16;;;7.88;97.39
23677;BME280;31493;49.058;12.190;2023-04-22T05:14:29;95603.75;;;7.98;96.26
23677;BME280;31493;49.058;12.190;2023-04-22T05:16:56;95594.72;;;8.05;96.12
23677;BME280;31493;49.058;12.190;2023-04-22T05:19:23;95598.56;;;8.25;95.04
23677;BME280;31493;49.058;12.190;2023-04-22T05:21:50;95608.28;;;8.47;94.06
23677;BME280;31493;49.058;12.190;2023-04-22T05:24:18;95603.84;;;8.87;91.43
23677;BME280;31493;49.058;12.190;2023-04-22T05:26:46;95596.19;;;9.48;85.61
23677;BME280;31493;49.058;12.190;2023-04-22T05:29:13;95591.28;;;9.80;82.90
23677;BME280;31493;49.058;12.190;2023-04-22T05:31:40;95598.03;;;9.69;83.40
23677;BME280;31493;49.058;12.190;2023-04-22T05:34:07;95597.94;;;9.47;86.44
23677;BME280;31493;49.058;12.190;2023-04-22T05:36:34;95606.31;;;9.38;86.98
23677;BME280;31493;49.058;12.190;2023-04-22T05:39:01;95597.56;;;9.88;83.66
23677;BME280;31493;49.058;12.190;2023-04-22T05:41:29;95601.16;;;10.34;79.19
23677;BME280;31493;49.058;12.190;2023-04-22T05:43:56;95609.06;;;10.43;79.14
23677;BME280;31493;49.058;12.190;2023-04-22T05:46:23;95605.91;;;10.62;77.26
23677;BME280;31493;49.058;12.190;2023-04-22T05:48:51;95603.56;;;10.82;75.20
23677;BME280;31493;49.058;12.190;2023-04-22T05:51:19;95613.09;;;10.92;74.67
23677;BME280;31493;49.058;12.190;2023-04-22T05:53:46;95604.38;;;11.16;72.59
23677;BME280;31493;49.058;12.190;2023-04-22T05:56:13;95595.91;;;11.02;74.07
23677;BME280;31493;49.058;12.190;2023-04-22T05:58:42;95597.91;;;11.21;72.77
23677;BME280;31493;49.058;12.190;2023-04-22T06:01:09;95591.31;;;11.28;72.08
23677;BME280;31493;49.058;12.190;2023-04-22T06:03:36;95604.13;;;11.41;70.51
23677;BME280;31493;49.058;12.190;2023-04-22T06:06:03;95593.41;;;11.46;70.35
23677;BME280;31493;49.058;12.190;2023-04-22T06:08:31;95601.91;;;11.48;70.11
23677;BME280;31493;49.058;12.190;2023-04-22T06:10:58;95600.81;;;11.50;72.24
23677;BME280;31493;49.058;12.190;2023-04-22T06:13:25;95607.13;;;11.80;68.28
23677;BME280;31493;49.058;12.190;2023-04-22T06:15:53;95616.44;;;11.71;70.74
23677;BME280;31493;49.058;12.190;2023-04-22T06:18:21;95615.59;;;11.93;67.28
23677;BME280;31493;49.058;12.190;2023-04-22T06:20:48;95615.38;;;11.74;68.33
23677;BME280;31493;49.058;12.190;2023-04-22T06:23:15;95622.69;;;11.69;68.47
23677;BME280;31493;49.058;12.190;2023-04-22T06:25:42;95625.50;;;11.88;68.32
23677;BME280;31493;49.058;12.190;2023-04-22T06:28:09;95620.91;;;11.92;67.17
23677;BME280;31493;49.058;12.190;2023-04-22T06:30:36;95625.47;;;11.99;67.51
23677;BME280;31493;49.058;12.190;2023-04-22T06:33:04;95624.88;;;11.96;68.02
23677;BME280;31493;49.058;12.190;2023-04-22T06:35:31;95636.53;;;12.01;68.73
23677;BME280;31493;49.058;12.190;2023-04-22T06:37:58;95643.63;;;11.99;69.14
23677;BME280;31493;49.058;12.190;2023-04-22T06:40:25;95636.69;;;12.21;67.94
23677;BME280;31493;49.058;12.190;2023-04-22T06:42:53;95635.00;;;12.10;68.33
23677;BME280;31493;49.058;12.190;2023-04-22T06:45:26;95652.09;;;12.01;67.12
23677;BME280;31493;49.058;12.190;2023-04-22T06:47:53;95648.75;;;12.22;68.68
23677;BME280;31493;49.058;12.190;2023-04-22T06:50:22;95659.13;;;12.22;66.07
23677;BME280;31493;49.058;12.190;2023-04-22T06:52:49;95642.69;;;12.00;66.42
23677;BME280;31493;49.058;12.190;2023-04-22T06:55:17;95650.22;;;12.03;67.41
23677;BME280;31493;49.058;12.190;2023-04-22T06:57:44;95654.16;;;12.19;65.29
23677;BME280;31493;49.058;12.190;2023-04-22T07:00:12;95656.53;;;12.22;68.47
23677;BME280;31493;49.058;12.190;2023-04-22T07:02:39;95652.03;;;12.24;67.25
23677;BME280;31493;49.058;12.190;2023-04-22T07:05:06;95655.97;;;12.39;64.48
23677;BME280;31493;49.058;12.190;2023-04-22T07:07:35;95653.00;;;12.23;66.77
23677;BME280;31493;49.058;12.190;2023-04-22T07:10:02;95656.53;;;12.43;63.57
23677;BME280;31493;49.058;12.190;2023-04-22T07:12:30;95661.28;;;12.37;65.47
23677;BME280;31493;49.058;12.190;2023-04-22T07:14:57;95650.72;;;12.29;63.89
23677;BME280;31493;49.058;12.190;2023-04-22T07:17:27;95660.75;;;12.55;64.96
23677;BME280;31493;49.058;12.190;2023-04-22T07:19:54;95658.19;;;12.44;67.73
23677;BME280;31493;49.058;12.190;2023-04-22T07:22:21;95652.00;;;12.56;64.41
23677;BME280;31493;49.058;12.190;2023-04-22T07:24:49;95646.56;;;12.59;65.52
23677;BME280;31493;49.058;12.190;2023-04-22T07:27:16;95651.00;;;12.89;65.69
23677;BME280;31493;49.058;12.190;2023-04-22T07:29:43;95646.84;;;12.86;65.71
23677;BME280;31493;49.058;12.190;2023-04-22T07:32:11;95654.41;;;12.69;66.51
23677;BME280;31493;49.058;12.190;2023-04-22T07:34:38;95653.63;;;12.99;65.88
23677;BME280;31493;49.058;12.190;2023-04-22T07:37:05;95653.75;;;12.97;63.74
23677;BME280;31493;49.058;12.190;2023-04-22T07:39:32;95650.13;;;13.09;66.16
23677;BME280;31493;49.058;12.190;2023-04-22T07:42:00;95656.44;;;13.16;61.64
23677;BME280;31493;49.058;12.190;2023-04-22T07:44:28;95648.69;;;12.96;63.00
23677;BME280;31493;49.058;12.190;2023-04-22T07:46:55;95633.06;;;13.16;62.73
23677;BME280;31493;49.058;12.190;2023-04-22T07:49:22;95638.59;;;13.23;61.06
23677;BME280;31493;49.058;12.190;2023-04-22T07:51:49;95636.56;;;13.27;62.30
23677;BME280;31493;49.058;12.190;2023-04-22T07:54:16;95641.44;;;13.51;61.10
23677;BME280;31493;49.058;12.190;2023-04-22T07:56:43;95642.38;;;13.50;61.37
23677;BME280;31493;49.058;12.190;2023-04-22T07:59:12;95634.56;;;13.50;60.01
23677;BME280;31493;49.058;12.190;2023-04-22T08:01:39;95633.94;;;13.57;61.43
23677;BME280;31493;49.058;12.190;2023-04-22T08:04:06;95632.59;;;13.82;60.33
23677;BME280;31493;49.058;12.190;2023-04-22T08:06:33;95636.63;;;14.06;59.78
23677;BME280;31493;49.058;12.190;2023-04-22T08:09:00;95637.16;;;14.09;58.57
23677;BME280;31493;49.058;12.190;2023-04-22T08:11:27;95631.53;;;14.04;58.38
23677;BME280;31493;49.058;12.190;2023-04-22T08:13:54;95630.97;;;13.91;58.40
23677;BME280;31493;49.058;12.190;2023-04-22T08:16:22;95628.91;;;13.85;59.84
23677;BME280;31493;49.058;12.190;2023-04-22T08:18:49;95629.59;;;13.96;60.97
23677;BME280;31493;49.058;12.190;2023-04-22T08:21:17;95633.31;;;14.13;60.67
23677;BME280;31493;49.058;12.190;2023-04-22T08:23:44;95620.56;;;14.39;62.28
23677;BME280;31493;49.058;12.190;2023-04-22T08:26:11;95619.63;;;14.21;59.42
23677;BME280;31493;49.058;12.190;2023-04-22T08:28:40;95635.09;;;14.13;58.86
23677;BME280;31493;49.058;12.190;2023-04-22T08:31:07;95619.34;;;13.95;59.59
23677;BME280;31493;49.058;12.190;2023-04-22T08:33:38;95633.75;;;14.38;61.75
23677;BME280;31493;49.058;12.190;2023-04-22T08:36:06;95632.09;;;14.37;60.53
23677;BME280;31493;49.058;12.190;2023-04-22T08:38:33;95633.03;;;14.36;60.30
23677;BME280;31493;49.058;12.190;2023-04-22T08:41:00;95630.72;;;14.33;59.13
23677;BME280;31493;49.058;12.190;2023-04-22T08:43:29;95645.38;;;14.34;62.50
23677;BME280;31493;49.058;12.190;2023-04-22T08:45:56;95645.53;;;14.32;61.96
23677;BME280;31493;49.058;12.190;2023-04-22T08:48:24;95650.47;;;14.55;60.19
23677;BME280;31493;49.058;12.190;2023-04-22T08:50:53;95652.06;;;14.94;66.00
23677;BME280;31493;49.058;12.190;2023-04-22T08:53:20;95651.97;;;14.67;65.38
23677;BME280;31493;49.058;12.190;2023-04-22T08:55:48;95662.97;;;14.51;63.03
23677;BME280;31493;49.058;12.190;2023-04-22T08:58:15;95660.63;;;14.67;64.96
23677;BME280;31493;49.058;12.190;2023-04-22T09:00:43;95657.34;;;14.56;63.59
23677;BME280;31493;49.058;12.190;2023-04-22T09:03:10;95640.56;;;14.87;64.31
23677;BME280;31493;49.058;12.190;2023-04-22T09:05:39;95642.22;;;14.78;62.32
23677;BME280;31493;49.058;12.190;2023-04-22T09:08:08;95641.13;;;14.71;61.57
23677;BME280;31493;49.058;12.190;2023-04-22T09:10:37;95627.06;;;15.01;61.92
23677;BME280;31493;49.058;12.190;2023-04-22T09:13:05;95638.34;;;14.92;61.15
23677;BME280;31493;49.058;12.190;2023-04-22T09:15:32;95644.59;;;15.19;60.62
23677;BME280;31493;49.058;12.190;2023-04-22T09:18:01;95632.84;;;15.32;61.72
23677;BME280;31493;49.058;12.190;2023-04-22T09:20:29;95632.97;;;15.41;59.34
23677;BME280;31493;49.058;12.190;2023-04-22T09:22:57;95631.25;;;15.59;58.66
23677;BME280;31493;49.058;12.190;2023-04-22T09:25:29;95635.09;;;15.82;59.45
23677;BME280;31493;49.058;12.190;2023-04-22T09:27:57;95626.03;;;15.59;57.55
23677;BME280;31493;49.058;12.190;2023-04-22T09:30:26;95634.94;;;15.56;57.93
23677;BME280;31493;49.058;12.190;2023-04-22T09:32:53;95631.56;;;15.46;57.10
23677;BME280;31493;49.058;12.190;2023-04-22T09:35:27;95618.66;;;15.45;58.94
23677;BME280;31493;49.058;12.190;2023-04-22T09:37:55;95619.06;;;15.77;58.64
23677;BME280;31493;49.058;12.190;2023-04-22T09:40:22;95630.94;;;15.72;55.70
23677;BME280;31493;49.058;12.190;2023-04-22T09:42:52;95640.41;;;15.73;55.65
23677;BME280;31493;49.058;12.190;2023-04-22T09:45:27;95633.81;;;15.69;57.20
23677;BME280;31493;49.058;12.190;2023-04-22T09:47:55;95624.53;;;16.02;59.19
23677;BME280;31493;49.058;12.190;2023-04-22T09:50:23;95628.88;;;16.11;55.57
23677;BME280;31493;49.058;12.190;2023-04-22T09:52:55;95623.34;;;16.14;58.28
23677;BME280;31493;49.058;12.190;2023-04-22T09:55:23;95626.41;;;15.92;55.65
23677;BME280;31493;49.058;12.190;2023-04-22T09:57:53;95629.09;;;16.00;56.49
23677;BME280;31493;49.058;12.190;2023-04-22T10:00:22;95631.50;;;16.29;56.08
23677;BME280;31493;49.058;12.190;2023-04-22T10:02:49;95629.75;;;16.73;57.23
23677;BME280;31493;49.058;12.190;2023-04-22T10:05:16;95614.59;;;16.59;58.09
23677;BME280;31493;49.058;12.190;2023-04-22T10:07:44;95619.88;;;16.85;59.01
23677;BME280;31493;49.058;12.190;2023-04-22T10:10:11;95628.13;;;16.72;55.91
23677;BME280;31493;49.058;12.190;2023-04-22T10:12:38;95626.06;;;17.10;59.30
23677;BME280;31493;49.058;12.190;2023-04-22T10:15:07;95617.09;;;17.12;59.71
23677;BME280;31493;49.058;12.190;2023-04-22T10:17:37;95610.72;;;17.49;58.46
23677;BME280;31493;49.058;12.190;2023-04-22T10:20:08;95612.84;;;17.45;61.03
23677;BME280;31493;49.058;12.190;2023-04-22T10:22:40;95605.59;;;17.05;55.50
23677;BME280;31493;49.058;12.190;2023-04-22T10:25:12;95608.16;;;16.89;55.65
23677;BME280;31493;49.058;12.190;2023-04-22T10:27:39;95600.47;;;17.22;57.95
23677;BME280;31493;49.058;12.190;2023-04-22T10:30:09;95610.78;;;17.65;57.38
23677;BME280;31493;49.058;12.190;2023-04-22T10:32:37;95613.16;;;17.42;53.09
23677;BME280;31493;49.058;12.190;2023-04-22T10:35:07;95601.50;;;17.37;53.44
23677;BME280;31493;49.058;12.190;2023-04-22T10:37:34;95601.94;;;18.58;53.81
23677;BME280;31493;49.058;12.190;2023-04-22T10:40:07;95592.28;;;18.34;52.64
23677;BME280;31493;49.058;12.190;2023-04-22T10:42:38;95607.19;;;18.66;51.48
23677;BME280;31493;49.058;12.190;2023-04-22T10:45:06;95588.69;;;18.43;49.32
23677;BME280;31493;49.058;12.190;2023-04-22T10:47:36;95583.13;;;18.78;47.33
23677;BME280;31493;49.058;12.190;2023-04-22T10:50:11;95593.09;;;18.83;46.63
23677;BME280;31493;49.058;12.190;2023-04-22T10:52:39;95588.50;;;18.28;47.69
23677;BME280;31493;49.058;12.190;2023-04-22T10:55:06;95595.91;;;18.49;52.46
23677;BME280;31493;49.058;12.190;2023-04-22T10:57:38;95590.88;;;17.72;44.67
23677;BME280;31493;49.058;12.190;2023-04-22T11:00:39;95594.44;;;18.55;48.46
23677;BME280;31493;49.058;12.190;2023-04-22T11:03:10;95589.69;;;18.74;51.14
23677;BME280;31493;49.058;12.190;2023-04-22T11:05:38;95575.56;;;18.92;46.86
23677;BME280;31493;49.058;12.190;2023-04-22T11:08:07;95584.91;;;18.13;46.02
23677;BME280;31493;49.058;12.190;2023-04-22T11:10:37;95592.72;;;17.80;44.86
23677;BME280;31493;49.058;12.190;2023-04-22T11:13:09;95580.34;;;18.39;46.82
23677;BME280;31493;49.058;12.190;2023-04-22T11:15:38;95568.09;;;19.28;46.68
23677;BME280;31493;49.058;12.190;2023-04-22T11:18:13;95571.06;;;19.17;45.85
23677;BME280;31493;49.058;12.190;2023-04-22T11:20:40;95579.25;;;19.22;44.97
23677;BME280;31493;49.058;12.190;2023-04-22T11:23:07;95577.81;;;19.50;45.36
23677;BME280;31493;49.058;12.190;2023-04-22T11:25:35;95565.78;;;19.25;45.17
23677;BME280;31493;49.058;12.190;2023-04-22T11:28:02;95581.97;;;18.48;43.57
23677;BME280;31493;49.058;12.190;2023-04-22T11:30:30;95583.31;;;19.32;46.67
23677;BME280;31493;49.058;12.190;2023-04-22T11:32:58;95576.31;;;19.56;45.34
23677;BME280;31493;49.058;12.190;2023-04-22T11:35:29;95577.88;;;18.54;45.37
23677;BME280;31493;49.058;12.190;2023-04-22T11:37:58;95583.25;;;18.93;45.23
23677;BME280;31493;49.058;12.190;2023-04-22T11:40:26;95564.56;;;18.96;43.72
23677;BME280;31493;49.058;12.190;2023-04-22T11:42:54;95566.75;;;18.11;41.83
23677;BME280;31493;49.058;12.190;2023-04-22T11:45:22;95555.44;;;19.31;42.68
23677;BME280;31493;49.058;12.190;2023-04-22T11:47:50;95567.38;;;19.42;43.33
23677;BME280;31493;49.058;12.190;2023-04-22T11:50:20;95561.09;;;19.59;43.10
23677;BME280;31493;49.058;12.190;2023-04-22T11:52:51;95562.09;;;19.03;41.38
23677;BME280;31493;49.058;12.190;2023-04-22T11:55:21;95558.28;;;19.22;42.09
23677;BME280;31493;49.058;12.190;2023-04-22T11:57:53;95552.72;;;19.17;39.92
23677;BME280;31493;49.058;12.190;2023-04-22T12:00:22;95550.31;;;20.00;42.96
23677;BME280;31493;49.058;12.190;2023-04-22T12:03:00;95546.13;;;19.91;42.78
23677;BME280;31493;49.058;12.190;2023-04-22T12:05:32;95544.50;;;19.51;41.73
23677;BME280;31493;49.058;12.190;2023-04-22T12:08:02;95551.06;;;19.55;41.69
23677;BME280;31493;49.058;12.190;2023-04-22T12:10:29;95550.97;;;20.02;42.04
23677;BME280;31493;49.058;12.190;2023-04-22T12:12:56;95547.19;;;19.43;36.60
23677;BME280;31493;49.058;12.190;2023-04-22T12:15:23;95535.53;;;19.76;43.11
23677;BME280;31493;49.058;12.190;2023-04-22T12:17:50;95548.09;;;19.58;40.34
23677;BME280;31493;49.058;12.190;2023-04-22T12:20:18;95545.47;;;20.35;40.71
23677;BME280;31493;49.058;12.190;2023-04-22T12:22:45;95540.44;;;20.25;40.75
23677;BME280;31493;49.058;12.190;2023-04-22T12:25:16;95558.19;;;20.00;41.69
23677;BME280;31493;49.058;12.190;2023-04-22T12:27:43;95546.75;;;20.39;41.53
23677;BME280;31493;49.058;12.190;2023-04-22T12:30:12;95546.53;;;20.03;41.31
23677;BME280;31493;49.058;12.190;2023-04-22T12:32:39;95538.69;;;19.95;42.23
23677;BME280;31493;49.058;12.190;2023-04-22T12:35:07;95550.94;;;20.25;43.93
23677;BME280;31493;49.058;12.190;2023-04-22T12:37:34;95551.84;;;19.95;38.04
23677;BME280;31493;49.058;12.190;2023-04-22T12:40:02;95544.38;;;20.29;38.12
23677;BME280;31493;49.058;12.190;2023-04-22T12:42:32;95546.19;;;20.44;39.96
23677;BME280;31493;49.058;12.190;2023-04-22T12:44:59;95524.00;;;20.08;40.13
23677;BME280;31493;49.058;12.190;2023-04-22T12:47:26;95548.66;;;20.07;44.11
23677;BME280;31493;49.058;12.190;2023-04-22T12:49:55;95541.91;;;20.28;36.31
23677;BME280;31493;49.058;12.190;2023-04-22T12:52:23;95533.28;;;19.96;40.97
23677;BME280;31493;49.058;12.190;2023-04-22T12:54:50;95533.28;;;19.96;38.90
23677;BME280;31493;49.058;12.190;2023-04-22T12:57:17;95532.22;;;20.05;37.96